Time,TemperatureF,DewpointF,PressureIn,WindDirection,WindDirectionDegrees,WindSpeedMPH,WindSpeedGustMPH,Humidity,HourlyPrecipIn,Conditions,Clouds,dailyrainin,SoftwareType,DateUTC
2013-09-04 00:06:00,61.5,56.0,29.88,NW,319,0.0,-999.0,82,-99.99,,,0.00,weatherlink.com 1.10,2013-09-04 07:06:00,
2013-09-04 00:21:00,61.5,56.0,29.89,NW,319,0.0,-999.0,82,-99.99,,,0.00,weatherlink.com 1.10,2013-09-04 07:21:00,
2013-09-04 00:36:00,61.6,56.0,29.89,NW,319,0.0,-999.0,82,-99.99,,,0.00,weatherlink.com 1.10,2013-09-04 07:36:00,
2013-09-04 00:51:00,61.2,56.0,29.88,NW,319,0.0,-999.0,82,-99.99,,,0.00,weatherlink.com 1.10,2013-09-04 07:51:00,
2013-09-04 01:06:00,61.3,56.0,29.88,NW,319,0.0,-999.0,82,-99.99,,,0.00,weatherlink.com 1.10,2013-09-04 08:06:00,
2013-09-04 01:21:00,61.6,56.0,29.88,NW,319,0.0,-999.0,81,-99.99,,,0.00,weatherlink.com 1.10,2013-09-04 08:21:00,
2013-09-04 01:36:00,61.3,55.0,29.88,NW,319,0.0,-999.0,81,-99.99,,,0.00,weatherlink.com 1.10,2013-09-04 08:36:00,
2013-09-04 01:51:00,60.7,55.0,29.89,NW,319,0.0,-999.0,82,-99.99,,,0.00,weatherlink.com 1.10,2013-09-04 08:51:00,
2013-09-04 02:06:00,60.2,55.0,29.88,NW,307,0.0,-999.0,83,-99.99,,,0.00,weatherlink.com 1.10,2013-09-04 09:06:00,
2013-09-04 02:21:00,60.4,55.0,29.88,WNW,294,0.0,-999.0,81,-99.99,,,0.00,weatherlink.com 1.10,2013-09-04 09:21:00,
2013-09-04 02:36:00,60.7,54.0,29.88,SW,224,1.0,-999.0,79,-99.99,,,0.00,weatherlink.com 1.10,2013-09-04 09:36:00,
2013-09-04 02:51:00,60.7,54.0,29.88,SW,225,0.0,-999.0,78,-99.99,,,0.00,weatherlink.com 1.10,2013-09-04 09:51:00,
2013-09-04 03:06:00,60.2,53.0,29.88,SW,225,0.0,-999.0,78,-99.99,,,0.00,weatherlink.com 1.10,2013-09-04 10:06:00,
2013-09-04 03:21:00,60.2,53.0,29.88,SW,225,0.0,-999.0,78,-99.99,,,0.00,weatherlink.com 1.10,2013-09-04 10:21:00,
2013-09-04 03:36:00,59.9,54.0,29.88,SW,225,0.0,-999.0,80,-99.99,,,0.00,weatherlink.com 1.10,2013-09-04 10:36:00,
2013-09-04 03:51:00,59.6,54.0,29.88,SW,225,0.0,-999.0,81,-99.99,,,0.00,weatherlink.com 1.10,2013-09-04 10:51:00,
2013-09-04 04:06:00,59.3,54.0,29.88,SW,225,0.0,-999.0,82,-99.99,,,0.00,weatherlink.com 1.10,2013-09-04 11:06:00,
2013-09-04 04:21:00,58.9,54.0,29.88,SW,225,0.0,-999.0,83,-99.99,,,0.00,weatherlink.com 1.10,2013-09-04 11:21:00,
2013-09-04 04:36:00,58.4,54.0,29.88,SW,225,0.0,-999.0,84,-99.99,,,0.00,weatherlink.com 1.10,2013-09-04 11:36:00,
2013-09-04 04:51:00,58.3,54.0,29.88,SW,225,0.0,-999.0,85,-99.99,,,0.00,weatherlink.com 1.10,2013-09-04 11:51:00,
2013-09-04 05:06:00,58.6,55.0,29.88,SW,225,0.0,-999.0,86,-99.99,,,0.00,weatherlink.com 1.10,2013-09-04 12:06:00,
2013-09-04 05:21:00,58.9,55.0,29.88,SW,225,0.0,-999.0,86,-99.99,,,0.00,weatherlink.com 1.10,2013-09-04 12:21:00,
2013-09-04 05:36:00,58.9,54.0,29.88,SW,225,0.0,-999.0,85,-99.99,,,0.00,weatherlink.com 1.10,2013-09-04 12:36:00,
2013-09-04 05:51:00,58.9,54.0,29.88,SW,225,0.0,-999.0,85,-99.99,,,0.00,weatherlink.com 1.10,2013-09-04 12:51:00,
2013-09-04 06:06:00,58.9,55.0,29.88,SW,225,0.0,-999.0,86,-99.99,,,0.00,weatherlink.com 1.10,2013-09-04 13:06:00,
2013-09-04 06:21:00,58.9,55.0,29.88,SW,225,0.0,-999.0,87,-99.99,,,0.00,weatherlink.com 1.10,2013-09-04 13:21:00,
2013-09-04 06:36:00,58.9,55.0,29.89,SW,225,0.0,-999.0,87,-99.99,,,0.00,weatherlink.com 1.10,2013-09-04 13:36:00,
2013-09-04 06:51:00,58.9,55.0,29.89,SW,225,0.0,-999.0,87,-99.99,,,0.00,weatherlink.com 1.10,2013-09-04 13:51:00,
2013-09-04 07:06:00,59.0,55.0,29.89,SW,225,0.0,-999.0,87,-99.99,,,0.00,weatherlink.com 1.10,2013-09-04 14:06:00,
2013-09-04 07:21:00,59.2,55.0,29.89,SW,225,0.0,-999.0,87,-99.99,,,0.00,weatherlink.com 1.10,2013-09-04 14:21:00,
2013-09-04 07:36:00,59.2,55.0,29.89,SW,225,0.0,-999.0,87,-99.99,,,0.00,weatherlink.com 1.10,2013-09-04 14:36:00,
2013-09-04 07:51:00,58.9,55.0,29.90,SW,225,0.0,-999.0,88,-99.99,,,0.00,weatherlink.com 1.10,2013-09-04 14:51:00,
2013-09-04 08:07:00,59.0,56.0,29.90,SW,225,0.0,-999.0,88,-99.99,,,0.00,weatherlink.com 1.10,2013-09-04 15:07:00,
2013-09-04 08:21:00,59.9,56.0,29.90,SW,225,0.0,-999.0,88,-99.99,,,0.00,weatherlink.com 1.10,2013-09-04 15:21:00,
2013-09-04 08:36:00,60.9,56.0,29.90,NNW,331,0.0,-999.0,85,-99.99,,,0.00,weatherlink.com 1.10,2013-09-04 15:36:00,
2013-09-04 08:51:00,62.6,57.0,29.90,NNW,331,0.0,-999.0,83,-99.99,,,0.00,weatherlink.com 1.10,2013-09-04 15:51:00,
2013-09-04 09:06:00,64.3,57.0,29.90,NNW,331,0.0,-999.0,78,-99.99,,,0.00,weatherlink.com 1.10,2013-09-04 16:06:00,
2013-09-04 09:21:00,65.6,58.0,29.91,NNW,331,0.0,-999.0,75,-99.99,,,0.00,weatherlink.com 1.10,2013-09-04 16:21:00,
2013-09-04 09:36:00,66.0,59.0,29.92,WSW,244,0.0,-999.0,77,-99.99,,,0.00,weatherlink.com 1.10,2013-09-04 16:36:00,
2013-09-04 09:51:00,66.6,58.0,29.92,WSW,244,0.0,-999.0,75,-99.99,,,0.00,weatherlink.com 1.10,2013-09-04 16:51:00,
2013-09-04 10:06:00,66.8,57.0,29.93,South,178,0.0,-999.0,71,-99.99,,,0.00,weatherlink.com 1.10,2013-09-04 17:06:00,
2013-09-04 10:21:00,67.3,58.0,29.92,South,179,0.0,-999.0,71,-99.99,,,0.00,weatherlink.com 1.10,2013-09-04 17:21:00,
2013-09-04 10:36:00,68.3,58.0,29.91,SW,216,2.0,-999.0,70,-99.99,,,0.00,weatherlink.com 1.10,2013-09-04 17:36:00,
2013-09-04 10:51:00,68.4,57.0,29.92,WSW,239,0.0,-999.0,66,-99.99,,,0.00,weatherlink.com 1.10,2013-09-04 17:51:00,
2013-09-04 11:06:00,68.9,56.0,29.92,WSW,247,0.0,-999.0,63,-99.99,,,0.00,weatherlink.com 1.10,2013-09-04 18:06:00,
2013-09-04 11:21:00,69.8,57.0,29.91,East,96,0.0,-999.0,65,-99.99,,,0.00,weatherlink.com 1.10,2013-09-04 18:21:00,
2013-09-04 11:36:00,70.4,56.0,29.92,SW,225,0.0,-999.0,61,-99.99,,,0.00,weatherlink.com 1.10,2013-09-04 18:36:00,
2013-09-04 11:51:00,70.9,58.0,29.92,NNW,345,0.0,-999.0,63,-99.99,,,0.00,weatherlink.com 1.10,2013-09-04 18:51:00,
2013-09-04 12:06:00,71.6,58.0,29.92,WNW,283,0.0,-999.0,62,-99.99,,,0.00,weatherlink.com 1.10,2013-09-04 19:06:00,
2013-09-04 12:21:00,72.1,57.0,29.93,WSW,238,3.0,-999.0,60,-99.99,,,0.00,weatherlink.com 1.10,2013-09-04 19:21:00,
2013-09-04 12:36:00,72.0,57.0,29.92,SE,141,1.0,-999.0,60,-99.99,,,0.00,weatherlink.com 1.10,2013-09-04 19:36:00,
2013-09-04 12:51:00,71.5,57.0,29.92,WNW,296,1.0,-999.0,61,-99.99,,,0.00,weatherlink.com 1.10,2013-09-04 19:51:00,
2013-09-04 13:06:00,71.8,57.0,29.92,NW,316,3.0,-999.0,60,-99.99,,,0.00,weatherlink.com 1.10,2013-09-04 20:06:00,
2013-09-04 13:21:00,71.6,56.0,29.91,West,278,0.0,-999.0,59,-99.99,,,0.00,weatherlink.com 1.10,2013-09-04 20:21:00,
2013-09-04 13:36:00,72.1,56.0,29.92,SSW,207,0.0,-999.0,58,-99.99,,,0.00,weatherlink.com 1.10,2013-09-04 20:36:00,
2013-09-04 13:51:00,72.5,55.0,29.92,NW,315,0.0,-999.0,55,-99.99,,,0.00,weatherlink.com 1.10,2013-09-04 20:51:00,
2013-09-04 14:06:00,72.3,55.0,29.92,NE,35,0.0,-999.0,55,-99.99,,,0.00,weatherlink.com 1.10,2013-09-04 21:06:00,
2013-09-04 14:21:00,72.1,56.0,29.92,SE,128,0.0,-999.0,58,-99.99,,,0.00,weatherlink.com 1.10,2013-09-04 21:21:00,
2013-09-04 14:36:00,73.2,54.0,29.92,WNW,292,0.0,-999.0,52,-99.99,,,0.00,weatherlink.com 1.10,2013-09-04 21:36:00,
2013-09-04 14:51:00,73.3,56.0,29.91,West,264,0.0,-999.0,54,-99.99,,,0.00,weatherlink.com 1.10,2013-09-04 21:51:00,
2013-09-04 15:06:00,74.0,56.0,29.92,NW,311,0.0,-999.0,54,-99.99,,,0.00,weatherlink.com 1.10,2013-09-04 22:06:00,
2013-09-04 15:21:00,73.7,56.0,29.91,North,355,0.0,-999.0,54,-99.99,,,0.00,weatherlink.com 1.10,2013-09-04 22:21:00,
2013-09-04 15:36:00,73.3,57.0,29.91,North,355,0.0,-999.0,58,-99.99,,,0.00,weatherlink.com 1.10,2013-09-04 22:36:00,
2013-09-04 15:51:00,73.2,57.0,29.91,SE,141,0.0,-999.0,57,-99.99,,,0.00,weatherlink.com 1.10,2013-09-04 22:51:00,
2013-09-04 16:06:00,72.8,56.0,29.91,SE,124,0.0,-999.0,55,-99.99,,,0.00,weatherlink.com 1.10,2013-09-04 23:06:00,
2013-09-04 16:21:00,72.0,57.0,29.91,WSW,244,4.0,-999.0,59,-99.99,,,0.00,weatherlink.com 1.10,2013-09-04 23:21:00,
2013-09-04 16:36:00,71.6,58.0,29.91,West,269,2.0,-999.0,62,-99.99,,,0.00,weatherlink.com 1.10,2013-09-04 23:36:00,
2013-09-04 16:51:00,71.3,57.0,29.91,WSW,237,3.0,-999.0,62,-99.99,,,0.00,weatherlink.com 1.10,2013-09-04 23:51:00,
2013-09-04 17:06:00,71.5,57.0,29.90,WSW,250,0.0,-999.0,61,-99.99,,,0.00,weatherlink.com 1.10,2013-09-05 00:06:00,
2013-09-04 17:21:00,72.1,58.0,29.90,West,280,0.0,-999.0,61,-99.99,,,0.00,weatherlink.com 1.10,2013-09-05 00:21:00,
2013-09-04 17:36:00,71.8,58.0,29.90,West,259,0.0,-999.0,63,-99.99,,,0.00,weatherlink.com 1.10,2013-09-05 00:36:00,
2013-09-04 17:51:00,71.1,58.0,29.90,WSW,249,0.0,-999.0,64,-99.99,,,0.00,weatherlink.com 1.10,2013-09-05 00:51:00,
2013-09-04 18:06:00,70.6,58.0,29.89,WNW,286,1.0,-999.0,65,-99.99,,,0.00,weatherlink.com 1.10,2013-09-05 01:06:00,
2013-09-04 18:21:00,70.8,58.0,29.89,West,275,0.0,-999.0,65,-99.99,,,0.00,weatherlink.com 1.10,2013-09-05 01:21:00,
2013-09-04 18:36:00,71.3,58.0,29.89,WSW,239,0.0,-999.0,64,-99.99,,,0.00,weatherlink.com 1.10,2013-09-05 01:36:00,
2013-09-04 18:51:00,71.3,58.0,29.89,North,5,0.0,-999.0,63,-99.99,,,0.00,weatherlink.com 1.10,2013-09-05 01:51:00,
2013-09-04 19:06:00,70.8,58.0,29.88,WNW,286,0.0,-999.0,64,-99.99,,,0.00,weatherlink.com 1.10,2013-09-05 02:06:00,
2013-09-04 19:21:00,69.8,58.0,29.88,West,263,0.0,-999.0,66,-99.99,,,0.00,weatherlink.com 1.10,2013-09-05 02:21:00,
2013-09-04 19:36:00,68.4,58.0,29.88,WSW,246,0.0,-999.0,69,-99.99,,,0.00,weatherlink.com 1.10,2013-09-05 02:36:00,
2013-09-04 19:51:00,67.1,58.0,29.88,WSW,244,0.0,-999.0,72,-99.99,,,0.00,weatherlink.com 1.10,2013-09-05 02:51:00,
2013-09-04 20:06:00,66.0,57.0,29.88,WSW,244,0.0,-999.0,72,-99.99,,,0.00,weatherlink.com 1.10,2013-09-05 03:06:00,
2013-09-04 20:21:00,65.3,57.0,29.89,WSW,244,0.0,-999.0,74,-99.99,,,0.00,weatherlink.com 1.10,2013-09-05 03:21:00,
2013-09-04 20:36:00,64.3,57.0,29.89,WSW,244,0.0,-999.0,76,-99.99,,,0.00,weatherlink.com 1.10,2013-09-05 03:36:00,
2013-09-04 20:51:00,64.2,57.0,29.90,West,277,0.0,-999.0,76,-99.99,,,0.00,weatherlink.com 1.10,2013-09-05 03:51:00,
2013-09-04 21:06:00,64.2,57.0,29.90,West,259,0.0,-999.0,76,-99.99,,,0.00,weatherlink.com 1.10,2013-09-05 04:06:00,
2013-09-04 21:21:00,63.5,57.0,29.90,West,259,0.0,-999.0,78,-99.99,,,0.00,weatherlink.com 1.10,2013-09-05 04:21:00,
2013-09-04 21:36:00,63.1,57.0,29.90,West,259,0.0,-999.0,79,-99.99,,,0.00,weatherlink.com 1.10,2013-09-05 04:36:00,
2013-09-04 21:51:00,62.7,56.0,29.90,West,259,0.0,-999.0,79,-99.99,,,0.00,weatherlink.com 1.10,2013-09-05 04:51:00,
2013-09-04 22:06:00,63.2,56.0,29.91,West,259,0.0,-999.0,78,-99.99,,,0.00,weatherlink.com 1.10,2013-09-05 05:06:00,
2013-09-04 22:21:00,63.1,57.0,29.91,West,259,0.0,-999.0,79,-99.99,,,0.00,weatherlink.com 1.10,2013-09-05 05:21:00,
2013-09-04 22:36:00,63.1,57.0,29.91,West,259,0.0,-999.0,79,-99.99,,,0.00,weatherlink.com 1.10,2013-09-05 05:36:00,
2013-09-04 22:51:00,63.1,56.0,29.91,West,259,0.0,-999.0,78,-99.99,,,0.00,weatherlink.com 1.10,2013-09-05 05:51:00,
2013-09-04 23:06:00,62.7,56.0,29.91,West,259,0.0,-999.0,79,-99.99,,,0.00,weatherlink.com 1.10,2013-09-05 06:06:00,
2013-09-04 23:21:00,62.7,56.0,29.91,West,259,0.0,-999.0,78,-99.99,,,0.00,weatherlink.com 1.10,2013-09-05 06:21:00,
2013-09-04 23:36:00,62.6,56.0,29.90,West,259,0.0,-999.0,79,-99.99,,,0.00,weatherlink.com 1.10,2013-09-05 06:36:00,
2013-09-04 23:51:00,62.6,56.0,29.89,West,259,0.0,-999.0,79,-99.99,,,0.00,weatherlink.com 1.10,2013-09-05 06:51:00,